Sulphur Springs, Missouri
Current Conditions -  °F | °C
As of 9:53 PM on Tuesday 25 Nov 2014 (Local Time) from KCPS Reporting Station
Clear Clear  
Wind Chill: 24°   Ceiling: Unl
Heat Index: 30°   Visibility: 10mi
Dew Point: 25°   Wind: 6mph
Humidity: 82%   Direction: 150°SSE
Pressure: 30.19"   Gusts: NA
Location:  38.3874°N, 90.4319°W
Report Text: KCPS 260353Z 15005KT 10SM CLR M01/M04 A3019 RMK AO2 SLP227 T10111039
Loading
Personal Weather Stations






























Interactive Weather Map New forecast layout! Learn more

10-Day Weather Forecast

Advertisements
Track Severe Weather on mobile